sensor_id;sensor_type;location;lat;lon;timestamp;temperature;humidity
18454;DHT22;9356;52.202;20.950;2023-12-29T00:01:07;6.10;99.90
18454;DHT22;9356;52.202;20.950;2023-12-29T00:02:13;6.00;99.90
18454;DHT22;9356;52.202;20.950;2023-12-29T00:03:24;6.10;99.90
18454;DHT22;9356;52.202;20.950;2023-12-29T00:04:30;6.20;99.90
18454;DHT22;9356;52.202;20.950;2023-12-29T00:05:36;6.10;99.90
18454;DHT22;9356;52.202;20.950;2023-12-29T00:06:41;6.10;99.90
18454;DHT22;9356;52.202;20.950;2023-12-29T00:08:00;6.10;99.90
18454;DHT22;9356;52.202;20.950;2023-12-29T00:09:04;6.40;99.90
18454;DHT22;9356;52.202;20.950;2023-12-29T00:10:09;6.20;99.90
18454;DHT22;9356;52.202;20.950;2023-12-29T00:11:17;6.30;99.90
18454;DHT22;9356;52.202;20.950;2023-12-29T00:12:22;6.20;99.90
18454;DHT22;9356;52.202;20.950;2023-12-29T00:13:26;6.20;99.90
18454;DHT22;9356;52.202;20.950;2023-12-29T00:14:29;6.30;99.90
18454;DHT22;9356;52.202;20.950;2023-12-29T00:15:32;6.30;99.90
18454;DHT22;9356;52.202;20.950;2023-12-29T00:16:36;6.30;99.90
18454;DHT22;9356;52.202;20.950;2023-12-29T00:17:43;6.30;99.90
18454;DHT22;9356;52.202;20.950;2023-12-29T00:18:46;6.40;99.90
18454;DHT22;9356;52.202;20.950;2023-12-29T00:19:54;6.30;99.90
18454;DHT22;9356;52.202;20.950;2023-12-29T00:20:58;6.30;99.90
18454;DHT22;9356;52.202;20.950;2023-12-29T00:22:08;6.40;99.90
18454;DHT22;9356;52.202;20.950;2023-12-29T00:23:14;6.20;99.90
18454;DHT22;9356;52.202;20.950;2023-12-29T00:24:18;6.20;99.90
18454;DHT22;9356;52.202;20.950;2023-12-29T00:25:21;6.30;99.90
18454;DHT22;9356;52.202;20.950;2023-12-29T00:26:28;6.20;99.90
18454;DHT22;9356;52.202;20.950;2023-12-29T00:27:32;6.20;99.90
18454;DHT22;9356;52.202;20.950;2023-12-29T00:28:37;6.20;99.90
18454;DHT22;9356;52.202;20.950;2023-12-29T00:29:46;6.30;99.90
18454;DHT22;9356;52.202;20.950;2023-12-29T00:30:52;6.30;99.90
18454;DHT22;9356;52.202;20.950;2023-12-29T00:32:05;6.10;99.90
18454;DHT22;9356;52.202;20.950;2023-12-29T00:33:10;6.20;99.90
18454;DHT22;9356;52.202;20.950;2023-12-29T00:34:14;6.20;99.90
18454;DHT22;9356;52.202;20.950;2023-12-29T00:35:18;6.40;99.90
18454;DHT22;9356;52.202;20.950;2023-12-29T00:36:22;6.40;99.90
18454;DHT22;9356;52.202;20.950;2023-12-29T00:37:25;6.50;99.90
18454;DHT22;9356;52.202;20.950;2023-12-29T00:38:34;6.50;99.90
18454;DHT22;9356;52.202;20.950;2023-12-29T00:39:38;6.40;99.90
18454;DHT22;9356;52.202;20.950;2023-12-29T00:40:45;6.50;99.90
18454;DHT22;9356;52.202;20.950;2023-12-29T00:41:49;6.50;99.90
18454;DHT22;9356;52.202;20.950;2023-12-29T00:43:00;6.50;99.90
18454;DHT22;9356;52.202;20.950;2023-12-29T00:44:12;6.50;99.90
18454;DHT22;9356;52.202;20.950;2023-12-29T00:45:17;6.60;99.90
18454;DHT22;9356;52.202;20.950;2023-12-29T00:46:21;6.50;99.90
18454;DHT22;9356;52.202;20.950;2023-12-29T00:47:25;6.50;99.90
18454;DHT22;9356;52.202;20.950;2023-12-29T00:48:29;6.50;99.90
18454;DHT22;9356;52.202;20.950;2023-12-29T00:49:32;6.60;99.90
18454;DHT22;9356;52.202;20.950;2023-12-29T00:50:39;6.60;99.90
18454;DHT22;9356;52.202;20.950;2023-12-29T00:51:47;6.60;99.90
18454;DHT22;9356;52.202;20.950;2023-12-29T00:52:54;6.60;99.90
18454;DHT22;9356;52.202;20.950;2023-12-29T00:54:01;6.60;99.90
18454;DHT22;9356;52.202;20.950;2023-12-29T00:55:11;6.60;99.90
18454;DHT22;9356;52.202;20.950;2023-12-29T00:56:14;6.50;99.90
18454;DHT22;9356;52.202;20.950;2023-12-29T00:57:20;6.60;99.90
18454;DHT22;9356;52.202;20.950;2023-12-29T00:58:26;6.60;99.90
18454;DHT22;9356;52.202;20.950;2023-12-29T00:59:37;6.60;99.90
18454;DHT22;9356;52.202;20.950;2023-12-29T01:00:45;6.50;99.90
18454;DHT22;9356;52.202;20.950;2023-12-29T01:01:49;6.50;99.90
18454;DHT22;9356;52.202;20.950;2023-12-29T01:02:53;6.50;99.90
18454;DHT22;9356;52.202;20.950;2023-12-29T01:03:58;6.50;99.90
18454;DHT22;9356;52.202;20.950;2023-12-29T01:05:05;6.60;99.90
18454;DHT22;9356;52.202;20.950;2023-12-29T01:06:12;6.60;99.90
18454;DHT22;9356;52.202;20.950;2023-12-29T01:07:16;6.50;99.90
18454;DHT22;9356;52.202;20.950;2023-12-29T01:08:24;6.30;99.90
18454;DHT22;9356;52.202;20.950;2023-12-29T01:09:34;6.30;99.90
18454;DHT22;9356;52.202;20.950;2023-12-29T01:10:42;6.30;99.90
18454;DHT22;9356;52.202;20.950;2023-12-29T01:11:46;6.30;99.90
18454;DHT22;9356;52.202;20.950;2023-12-29T01:12:53;6.20;99.90
18454;DHT22;9356;52.202;20.950;2023-12-29T01:13:57;6.30;99.90
18454;DHT22;9356;52.202;20.950;2023-12-29T01:15:02;6.30;99.90
18454;DHT22;9356;52.202;20.950;2023-12-29T01:16:07;6.30;99.90
18454;DHT22;9356;52.202;20.950;2023-12-29T01:17:12;6.30;99.90
18454;DHT22;9356;52.202;20.950;2023-12-29T01:18:17;6.40;99.90
18454;DHT22;9356;52.202;20.950;2023-12-29T01:19:22;6.30;99.90
18454;DHT22;9356;52.202;20.950;2023-12-29T01:20:26;6.20;99.90
18454;DHT22;9356;52.202;20.950;2023-12-29T01:21:37;6.20;99.90
18454;DHT22;9356;52.202;20.950;2023-12-29T01:22:44;6.20;99.90
18454;DHT22;9356;52.202;20.950;2023-12-29T01:23:52;6.30;99.90
18454;DHT22;9356;52.202;20.950;2023-12-29T01:25:00;6.30;99.90
18454;DHT22;9356;52.202;20.950;2023-12-29T01:26:05;6.30;99.90
18454;DHT22;9356;52.202;20.950;2023-12-29T01:27:08;6.20;99.90
18454;DHT22;9356;52.202;20.950;2023-12-29T01:28:21;6.20;99.90
18454;DHT22;9356;52.202;20.950;2023-12-29T01:29:25;6.30;99.90
18454;DHT22;9356;52.202;20.950;2023-12-29T01:30:33;6.40;99.90
18454;DHT22;9356;52.202;20.950;2023-12-29T01:31:40;6.40;99.90
18454;DHT22;9356;52.202;20.950;2023-12-29T01:32:50;6.70;99.90
18454;DHT22;9356;52.202;20.950;2023-12-29T01:33:58;6.40;99.90
18454;DHT22;9356;52.202;20.950;2023-12-29T01:35:13;6.30;99.90
18454;DHT22;9356;52.202;20.950;2023-12-29T01:36:21;6.30;99.90
18454;DHT22;9356;52.202;20.950;2023-12-29T01:37:27;7.20;99.90
18454;DHT22;9356;52.202;20.950;2023-12-29T01:38:34;6.10;99.90
18454;DHT22;9356;52.202;20.950;2023-12-29T01:39:38;6.20;99.90
18454;DHT22;9356;52.202;20.950;2023-12-29T01:40:44;6.20;99.90
18454;DHT22;9356;52.202;20.950;2023-12-29T01:41:55;6.20;99.90
18454;DHT22;9356;52.202;20.950;2023-12-29T01:43:01;6.20;99.90
18454;DHT22;9356;52.202;20.950;2023-12-29T01:44:18;6.20;99.90
18454;DHT22;9356;52.202;20.950;2023-12-29T01:45:24;6.20;99.90
18454;DHT22;9356;52.202;20.950;2023-12-29T01:46:34;6.10;99.90
18454;DHT22;9356;52.202;20.950;2023-12-29T01:47:37;6.10;99.90
18454;DHT22;9356;52.202;20.950;2023-12-29T01:48:45;6.00;99.90
18454;DHT22;9356;52.202;20.950;2023-12-29T01:49:54;5.80;99.90
18454;DHT22;9356;52.202;20.950;2023-12-29T01:51:04;5.80;99.90
18454;DHT22;9356;52.202;20.950;2023-12-29T01:52:08;5.80;99.90
18454;DHT22;9356;52.202;20.950;2023-12-29T01:53:13;6.00;99.90
18454;DHT22;9356;52.202;20.950;2023-12-29T01:54:18;5.90;99.90
18454;DHT22;9356;52.202;20.950;2023-12-29T01:55:26;6.00;99.90
18454;DHT22;9356;52.202;20.950;2023-12-29T01:56:32;5.90;99.90
18454;DHT22;9356;52.202;20.950;2023-12-29T01:57:42;5.90;99.90
18454;DHT22;9356;52.202;20.950;2023-12-29T01:58:48;5.80;99.90
18454;DHT22;9356;52.202;20.950;2023-12-29T01:59:59;5.70;99.90
18454;DHT22;9356;52.202;20.950;2023-12-29T02:01:03;5.70;99.90
18454;DHT22;9356;52.202;20.950;2023-12-29T02:02:14;5.70;99.90
18454;DHT22;9356;52.202;20.950;2023-12-29T02:03:24;5.70;99.90
18454;DHT22;9356;52.202;20.950;2023-12-29T02:04:32;5.70;99.90
18454;DHT22;9356;52.202;20.950;2023-12-29T02:05:36;5.80;99.90
18454;DHT22;9356;52.202;20.950;2023-12-29T02:06:40;5.70;99.90
18454;DHT22;9356;52.202;20.950;2023-12-29T02:07:45;5.70;99.90
18454;DHT22;9356;52.202;20.950;2023-12-29T02:08:53;5.70;99.90
18454;DHT22;9356;52.202;20.950;2023-12-29T02:09:58;5.80;99.90
18454;DHT22;9356;52.202;20.950;2023-12-29T02:11:04;5.80;99.90
18454;DHT22;9356;52.202;20.950;2023-12-29T02:12:08;5.80;99.90
18454;DHT22;9356;52.202;20.950;2023-12-29T02:13:13;5.80;99.90
18454;DHT22;9356;52.202;20.950;2023-12-29T02:14:18;5.80;99.90
18454;DHT22;9356;52.202;20.950;2023-12-29T02:15:25;5.70;99.90
18454;DHT22;9356;52.202;20.950;2023-12-29T02:16:37;5.70;99.90
18454;DHT22;9356;52.202;20.950;2023-12-29T02:17:47;5.70;99.90
18454;DHT22;9356;52.202;20.950;2023-12-29T02:18:58;5.60;99.90
18454;DHT22;9356;52.202;20.950;2023-12-29T02:20:05;5.50;99.90
18454;DHT22;9356;52.202;20.950;2023-12-29T02:21:10;5.50;99.90
18454;DHT22;9356;52.202;20.950;2023-12-29T02:22:15;5.50;99.90
18454;DHT22;9356;52.202;20.950;2023-12-29T02:23:20;5.50;99.90
18454;DHT22;9356;52.202;20.950;2023-12-29T02:24:24;5.50;99.90
18454;DHT22;9356;52.202;20.950;2023-12-29T02:25:33;5.50;99.90
18454;DHT22;9356;52.202;20.950;2023-12-29T02:26:44;5.60;99.90
18454;DHT22;9356;52.202;20.950;2023-12-29T02:28:04;5.60;99.90
18454;DHT22;9356;52.202;20.950;2023-12-29T02:29:15;5.60;99.90
18454;DHT22;9356;52.202;20.950;2023-12-29T02:30:36;5.60;99.90
18454;DHT22;9356;52.202;20.950;2023-12-29T02:31:45;5.60;99.90
18454;DHT22;9356;52.202;20.950;2023-12-29T02:32:55;5.60;99.90
18454;DHT22;9356;52.202;20.950;2023-12-29T02:34:05;5.70;99.90
18454;DHT22;9356;52.202;20.950;2023-12-29T02:35:13;5.60;99.90
18454;DHT22;9356;52.202;20.950;2023-12-29T02:36:25;5.60;99.90
18454;DHT22;9356;52.202;20.950;2023-12-29T02:37:30;5.70;99.90
18454;DHT22;9356;52.202;20.950;2023-12-29T02:38:36;5.70;99.90
18454;DHT22;9356;52.202;20.950;2023-12-29T02:39:41;5.70;99.90
18454;DHT22;9356;52.202;20.950;2023-12-29T02:40:49;5.70;99.90
18454;DHT22;9356;52.202;20.950;2023-12-29T02:41:54;5.60;99.90
18454;DHT22;9356;52.202;20.950;2023-12-29T02:43:00;5.70;99.90
18454;DHT22;9356;52.202;20.950;2023-12-29T02:44:06;5.60;99.90
18454;DHT22;9356;52.202;20.950;2023-12-29T02:45:09;5.60;99.90
18454;DHT22;9356;52.202;20.950;2023-12-29T02:46:14;5.60;99.90
18454;DHT22;9356;52.202;20.950;2023-12-29T02:47:18;5.60;99.90
18454;DHT22;9356;52.202;20.950;2023-12-29T02:48:25;5.70;99.90
18454;DHT22;9356;52.202;20.950;2023-12-29T02:49:28;5.60;99.90
18454;DHT22;9356;52.202;20.950;2023-12-29T02:50:32;5.70;99.90
18454;DHT22;9356;52.202;20.950;2023-12-29T02:51:35;5.70;99.90
18454;DHT22;9356;52.202;20.950;2023-12-29T02:52:41;5.70;99.90
18454;DHT22;9356;52.202;20.950;2023-12-29T02:53:44;5.70;99.90
18454;DHT22;9356;52.202;20.950;2023-12-29T02:54:48;5.60;99.90
18454;DHT22;9356;52.202;20.950;2023-12-29T02:55:56;5.40;99.90
18454;DHT22;9356;52.202;20.950;2023-12-29T02:57:00;5.30;99.90
18454;DHT22;9356;52.202;20.950;2023-12-29T02:58:04;5.30;99.90
18454;DHT22;9356;52.202;20.950;2023-12-29T02:59:09;5.20;99.90
18454;DHT22;9356;52.202;20.950;2023-12-29T03:00:13;5.50;99.90
18454;DHT22;9356;52.202;20.950;2023-12-29T03:01:18;5.10;99.90
18454;DHT22;9356;52.202;20.950;2023-12-29T03:02:26;5.10;99.90
18454;DHT22;9356;52.202;20.950;2023-12-29T03:03:30;5.10;99.90
18454;DHT22;9356;52.202;20.950;2023-12-29T03:04:36;5.10;99.90
18454;DHT22;9356;52.202;20.950;2023-12-29T03:05:41;5.20;99.90
18454;DHT22;9356;52.202;20.950;2023-12-29T03:06:44;5.20;99.90
18454;DHT22;9356;52.202;20.950;2023-12-29T03:07:49;5.20;99.90
18454;DHT22;9356;52.202;20.950;2023-12-29T03:08:54;5.20;99.90
18454;DHT22;9356;52.202;20.950;2023-12-29T03:09:58;5.20;99.90
18454;DHT22;9356;52.202;20.950;2023-12-29T03:11:03;5.20;99.90
18454;DHT22;9356;52.202;20.950;2023-12-29T03:12:09;5.20;99.90
18454;DHT22;9356;52.202;20.950;2023-12-29T03:13:15;4.50;99.90
18454;DHT22;9356;52.202;20.950;2023-12-29T03:14:24;5.00;99.90
18454;DHT22;9356;52.202;20.950;2023-12-29T03:15:32;5.00;99.90
18454;DHT22;9356;52.202;20.950;2023-12-29T03:16:36;5.20;99.90
18454;DHT22;9356;52.202;20.950;2023-12-29T03:17:40;4.90;99.90
18454;DHT22;9356;52.202;20.950;2023-12-29T03:18:47;5.10;99.90
18454;DHT22;9356;52.202;20.950;2023-12-29T03:19:52;5.00;99.90
18454;DHT22;9356;52.202;20.950;2023-12-29T03:20:57;4.90;99.90
18454;DHT22;9356;52.202;20.950;2023-12-29T03:22:00;5.00;99.90
18454;DHT22;9356;52.202;20.950;2023-12-29T03:23:06;5.10;99.90
18454;DHT22;9356;52.202;20.950;2023-12-29T03:24:10;4.90;99.90
18454;DHT22;9356;52.202;20.950;2023-12-29T03:25:16;5.00;99.90
18454;DHT22;9356;52.202;20.950;2023-12-29T03:26:22;5.00;99.90
18454;DHT22;9356;52.202;20.950;2023-12-29T03:27:28;5.00;99.90
18454;DHT22;9356;52.202;20.950;2023-12-29T03:28:33;5.00;99.90
18454;DHT22;9356;52.202;20.950;2023-12-29T03:29:38;5.10;99.90
18454;DHT22;9356;52.202;20.950;2023-12-29T03:31:15;5.10;99.90
18454;DHT22;9356;52.202;20.950;2023-12-29T03:32:29;5.10;99.90
18454;DHT22;9356;52.202;20.950;2023-12-29T03:33:32;5.10;99.90
18454;DHT22;9356;52.202;20.950;2023-12-29T03:34:36;5.10;99.90
18454;DHT22;9356;52.202;20.950;2023-12-29T03:35:39;5.10;99.90
18454;DHT22;9356;52.202;20.950;2023-12-29T03:36:47;5.20;99.90
18454;DHT22;9356;52.202;20.950;2023-12-29T03:37:50;5.30;99.90
18454;DHT22;9356;52.202;20.950;2023-12-29T03:38:54;5.20;99.90
18454;DHT22;9356;52.202;20.950;2023-12-29T03:39:56;5.10;99.90
18454;DHT22;9356;52.202;20.950;2023-12-29T03:41:02;5.10;99.90
18454;DHT22;9356;52.202;20.950;2023-12-29T03:42:08;5.20;99.90
18454;DHT22;9356;52.202;20.950;2023-12-29T03:43:11;5.30;99.90
18454;DHT22;9356;52.202;20.950;2023-12-29T03:44:15;5.20;99.90
18454;DHT22;9356;52.202;20.950;2023-12-29T03:45:25;5.20;99.90
18454;DHT22;9356;52.202;20.950;2023-12-29T03:46:33;5.20;99.90
18454;DHT22;9356;52.202;20.950;2023-12-29T03:47:40;5.10;99.90
18454;DHT22;9356;52.202;20.950;2023-12-29T03:48:50;5.20;99.90
18454;DHT22;9356;52.202;20.950;2023-12-29T03:49:56;5.10;99.90
18454;DHT22;9356;52.202;20.950;2023-12-29T03:51:08;5.10;99.90
18454;DHT22;9356;52.202;20.950;2023-12-29T03:52:12;5.10;99.90
18454;DHT22;9356;52.202;20.950;2023-12-29T03:53:19;5.10;99.90
18454;DHT22;9356;52.202;20.950;2023-12-29T03:54:24;5.10;99.90
18454;DHT22;9356;52.202;20.950;2023-12-29T03:55:33;5.20;99.90
18454;DHT22;9356;52.202;20.950;2023-12-29T03:56:36;5.20;99.90
18454;DHT22;9356;52.202;20.950;2023-12-29T03:57:44;5.00;99.90
18454;DHT22;9356;52.202;20.950;2023-12-29T03:58:48;4.90;99.90
18454;DHT22;9356;52.202;20.950;2023-12-29T03:59:52;4.90;99.90
18454;DHT22;9356;52.202;20.950;2023-12-29T04:00:56;4.90;99.90
18454;DHT22;9356;52.202;20.950;2023-12-29T04:02:05;5.00;99.90
18454;DHT22;9356;52.202;20.950;2023-12-29T04:03:08;4.90;99.90
18454;DHT22;9356;52.202;20.950;2023-12-29T04:04:12;4.90;99.90
18454;DHT22;9356;52.202;20.950;2023-12-29T04:05:21;4.90;99.90
18454;DHT22;9356;52.202;20.950;2023-12-29T04:06:29;4.90;99.90
18454;DHT22;9356;52.202;20.950;2023-12-29T04:07:32;4.80;99.90
18454;DHT22;9356;52.202;20.950;2023-12-29T04:08:37;4.90;99.90
18454;DHT22;9356;52.202;20.950;2023-12-29T04:09:40;4.90;99.90
18454;DHT22;9356;52.202;20.950;2023-12-29T04:10:45;5.00;99.90
18454;DHT22;9356;52.202;20.950;2023-12-29T04:11:50;4.90;99.90
18454;DHT22;9356;52.202;20.950;2023-12-29T04:12:56;5.00;99.90
18454;DHT22;9356;52.202;20.950;2023-12-29T04:13:59;5.00;99.90
18454;DHT22;9356;52.202;20.950;2023-12-29T04:15:04;5.00;99.90
18454;DHT22;9356;52.202;20.950;2023-12-29T04:16:07;4.90;99.90
18454;DHT22;9356;52.202;20.950;2023-12-29T04:17:12;4.90;99.90
18454;DHT22;9356;52.202;20.950;2023-12-29T04:18:18;4.80;99.90
18454;DHT22;9356;52.202;20.950;2023-12-29T04:19:23;4.90;99.90
18454;DHT22;9356;52.202;20.950;2023-12-29T04:20:29;4.90;99.90
18454;DHT22;9356;52.202;20.950;2023-12-29T04:21:33;4.90;99.90
18454;DHT22;9356;52.202;20.950;2023-12-29T04:22:38;4.90;99.90
18454;DHT22;9356;52.202;20.950;2023-12-29T04:23:42;4.90;99.90
18454;DHT22;9356;52.202;20.950;2023-12-29T04:24:45;4.70;99.90
18454;DHT22;9356;52.202;20.950;2023-12-29T04:25:52;4.80;99.90
18454;DHT22;9356;52.202;20.950;2023-12-29T04:26:55;4.80;99.90
18454;DHT22;9356;52.202;20.950;2023-12-29T04:28:07;4.90;99.90
18454;DHT22;9356;52.202;20.950;2023-12-29T04:29:12;4.90;99.90
18454;DHT22;9356;52.202;20.950;2023-12-29T04:30:17;4.90;99.90
18454;DHT22;9356;52.202;20.950;2023-12-29T04:31:22;4.80;99.90
18454;DHT22;9356;52.202;20.950;2023-12-29T04:32:26;4.80;99.90
18454;DHT22;9356;52.202;20.950;2023-12-29T04:33:29;4.90;99.90
18454;DHT22;9356;52.202;20.950;2023-12-29T04:34:37;4.90;99.90
18454;DHT22;9356;52.202;20.950;2023-12-29T04:35:43;5.00;99.90
18454;DHT22;9356;52.202;20.950;2023-12-29T04:36:48;5.00;99.90
18454;DHT22;9356;52.202;20.950;2023-12-29T04:37:54;5.00;99.90
18454;DHT22;9356;52.202;20.950;2023-12-29T04:38:58;5.00;99.90
18454;DHT22;9356;52.202;20.950;2023-12-29T04:40:08;5.00;99.90
18454;DHT22;9356;52.202;20.950;2023-12-29T04:41:12;5.00;99.90
18454;DHT22;9356;52.202;20.950;2023-12-29T04:42:20;5.10;99.90
18454;DHT22;9356;52.202;20.950;2023-12-29T04:43:25;5.10;99.90
18454;DHT22;9356;52.202;20.950;2023-12-29T04:44:29;5.00;99.90
18454;DHT22;9356;52.202;20.950;2023-12-29T04:45:32;5.10;99.90
18454;DHT22;9356;52.202;20.950;2023-12-29T04:46:35;5.00;99.90
18454;DHT22;9356;52.202;20.950;2023-12-29T04:47:40;5.00;99.90
18454;DHT22;9356;52.202;20.950;2023-12-29T04:48:46;5.00;99.90
18454;DHT22;9356;52.202;20.950;2023-12-29T04:49:53;5.00;99.90
18454;DHT22;9356;52.202;20.950;2023-12-29T04:50:56;5.00;99.90
18454;DHT22;9356;52.202;20.950;2023-12-29T04:52:00;5.00;99.90
18454;DHT22;9356;52.202;20.950;2023-12-29T04:53:04;5.10;99.90
18454;DHT22;9356;52.202;20.950;2023-12-29T04:54:07;5.00;99.90
18454;DHT22;9356;52.202;20.950;2023-12-29T04:55:13;5.00;99.90
18454;DHT22;9356;52.202;20.950;2023-12-29T04:56:16;5.00;99.90
18454;DHT22;9356;52.202;20.950;2023-12-29T04:57:20;5.00;99.90
18454;DHT22;9356;52.202;20.950;2023-12-29T04:58:24;5.00;99.90
18454;DHT22;9356;52.202;20.950;2023-12-29T04:59:28;5.00;99.90
18454;DHT22;9356;52.202;20.950;2023-12-29T05:00:31;5.00;99.90
18454;DHT22;9356;52.202;20.950;2023-12-29T05:01:36;5.00;99.90
18454;DHT22;9356;52.202;20.950;2023-12-29T05:02:39;4.90;99.90
18454;DHT22;9356;52.202;20.950;2023-12-29T05:03:45;4.80;99.90
18454;DHT22;9356;52.202;20.950;2023-12-29T05:04:49;4.90;99.90
18454;DHT22;9356;52.202;20.950;2023-12-29T05:05:55;4.90;99.90
18454;DHT22;9356;52.202;20.950;2023-12-29T05:07:00;5.00;99.90
18454;DHT22;9356;52.202;20.950;2023-12-29T05:08:04;5.10;99.90
18454;DHT22;9356;52.202;20.950;2023-12-29T05:09:08;5.00;99.90
18454;DHT22;9356;52.202;20.950;2023-12-29T05:10:12;5.00;99.90
18454;DHT22;9356;52.202;20.950;2023-12-29T05:11:18;5.00;99.90
18454;DHT22;9356;52.202;20.950;2023-12-29T05:12:25;5.10;99.90
18454;DHT22;9356;52.202;20.950;2023-12-29T05:13:33;5.10;99.90
18454;DHT22;9356;52.202;20.950;2023-12-29T05:14:36;5.10;99.90
18454;DHT22;9356;52.202;20.950;2023-12-29T05:15:40;5.00;99.90
18454;DHT22;9356;52.202;20.950;2023-12-29T05:16:45;5.00;99.90
18454;DHT22;9356;52.202;20.950;2023-12-29T05:17:49;5.10;99.90
18454;DHT22;9356;52.202;20.950;2023-12-29T05:18:55;5.10;99.90
18454;DHT22;9356;52.202;20.950;2023-12-29T05:19:57;5.10;99.90
18454;DHT22;9356;52.202;20.950;2023-12-29T05:21:05;5.10;99.90
18454;DHT22;9356;52.202;20.950;2023-12-29T05:22:08;5.10;99.90
18454;DHT22;9356;52.202;20.950;2023-12-29T05:23:15;5.20;99.90
18454;DHT22;9356;52.202;20.950;2023-12-29T05:24:20;5.20;99.90
18454;DHT22;9356;52.202;20.950;2023-12-29T05:25:26;5.20;99.90
18454;DHT22;9356;52.202;20.950;2023-12-29T05:26:30;5.20;99.90
18454;DHT22;9356;52.202;20.950;2023-12-29T05:27:34;5.20;99.90
18454;DHT22;9356;52.202;20.950;2023-12-29T05:28:41;5.30;99.90
18454;DHT22;9356;52.202;20.950;2023-12-29T05:29:48;5.30;99.90
18454;DHT22;9356;52.202;20.950;2023-12-29T05:30:51;5.30;99.90
18454;DHT22;9356;52.202;20.950;2023-12-29T05:31:57;5.30;99.90
18454;DHT22;9356;52.202;20.950;2023-12-29T05:33:08;5.40;99.90
18454;DHT22;9356;52.202;20.950;2023-12-29T05:34:12;5.50;99.90
18454;DHT22;9356;52.202;20.950;2023-12-29T05:35:16;5.60;99.90
18454;DHT22;9356;52.202;20.950;2023-12-29T05:36:20;5.60;99.90
18454;DHT22;9356;52.202;20.950;2023-12-29T05:37:23;5.60;99.90
18454;DHT22;9356;52.202;20.950;2023-12-29T05:38:28;5.50;99.90
18454;DHT22;9356;52.202;20.950;2023-12-29T05:39:34;5.50;99.90
18454;DHT22;9356;52.202;20.950;2023-12-29T05:40:40;5.60;99.90
18454;DHT22;9356;52.202;20.950;2023-12-29T05:41:44;5.70;99.90
18454;DHT22;9356;52.202;20.950;2023-12-29T05:42:53;5.70;99.90
18454;DHT22;9356;52.202;20.950;2023-12-29T05:43:57;5.70;99.90
18454;DHT22;9356;52.202;20.950;2023-12-29T05:45:04;5.70;99.90
18454;DHT22;9356;52.202;20.950;2023-12-29T05:46:10;5.80;99.90
18454;DHT22;9356;52.202;20.950;2023-12-29T05:47:17;5.80;99.90
18454;DHT22;9356;52.202;20.950;2023-12-29T05:48:20;5.80;99.90
18454;DHT22;9356;52.202;20.950;2023-12-29T05:49:24;5.80;99.90
18454;DHT22;9356;52.202;20.950;2023-12-29T05:50:31;5.80;99.90
18454;DHT22;9356;52.202;20.950;2023-12-29T05:51:37;5.90;99.90
18454;DHT22;9356;52.202;20.950;2023-12-29T05:52:43;5.80;99.90
18454;DHT22;9356;52.202;20.950;2023-12-29T05:53:48;5.90;99.90
18454;DHT22;9356;52.202;20.950;2023-12-29T05:54:51;5.90;99.90
18454;DHT22;9356;52.202;20.950;2023-12-29T05:56:00;5.90;99.90
18454;DHT22;9356;52.202;20.950;2023-12-29T05:57:09;6.00;99.90
18454;DHT22;9356;52.202;20.950;2023-12-29T05:58:17;6.00;99.90
18454;DHT22;9356;52.202;20.950;2023-12-29T05:59:21;6.00;99.90
18454;DHT22;9356;52.202;20.950;2023-12-29T06:00:26;5.90;99.90
18454;DHT22;9356;52.202;20.950;2023-12-29T06:01:33;6.00;99.90
18454;DHT22;9356;52.202;20.950;2023-12-29T06:02:37;5.90;99.90
18454;DHT22;9356;52.202;20.950;2023-12-29T06:03:40;6.00;99.90
18454;DHT22;9356;52.202;20.950;2023-12-29T06:04:48;6.00;99.90
18454;DHT22;9356;52.202;20.950;2023-12-29T06:05:54;6.10;99.90
18454;DHT22;9356;52.202;20.950;2023-12-29T06:07:01;6.20;99.90
18454;DHT22;9356;52.202;20.950;2023-12-29T06:08:05;6.20;99.90
18454;DHT22;9356;52.202;20.950;2023-12-29T06:09:10;6.10;99.90
18454;DHT22;9356;52.202;20.950;2023-12-29T06:10:13;6.10;99.90
18454;DHT22;9356;52.202;20.950;2023-12-29T06:11:17;6.20;99.90
18454;DHT22;9356;52.202;20.950;2023-12-29T06:12:20;6.10;99.90
18454;DHT22;9356;52.202;20.950;2023-12-29T06:13:24;6.00;99.90
18454;DHT22;9356;52.202;20.950;2023-12-29T06:14:29;6.00;99.90
18454;DHT22;9356;52.202;20.950;2023-12-29T06:15:33;6.10;99.90
18454;DHT22;9356;52.202;20.950;2023-12-29T06:16:36;6.20;99.90
18454;DHT22;9356;52.202;20.950;2023-12-29T06:17:40;6.20;99.90
18454;DHT22;9356;52.202;20.950;2023-12-29T06:18:44;6.10;99.90
18454;DHT22;9356;52.202;20.950;2023-12-29T06:19:49;6.00;99.90
18454;DHT22;9356;52.202;20.950;2023-12-29T06:20:53;6.10;99.90
18454;DHT22;9356;52.202;20.950;2023-12-29T06:21:56;6.00;99.90
18454;DHT22;9356;52.202;20.950;2023-12-29T06:23:05;6.10;99.90
18454;DHT22;9356;52.202;20.950;2023-12-29T06:24:10;6.20;99.90
18454;DHT22;9356;52.202;20.950;2023-12-29T06:25:15;6.20;99.90
18454;DHT22;9356;52.202;20.950;2023-12-29T06:26:21;6.20;99.90
18454;DHT22;9356;52.202;20.950;2023-12-29T06:27:27;6.30;99.90
18454;DHT22;9356;52.202;20.950;2023-12-29T06:28:33;6.30;99.90
18454;DHT22;9356;52.202;20.950;2023-12-29T06:29:44;6.30;99.90
18454;DHT22;9356;52.202;20.950;2023-12-29T06:30:48;6.30;99.90
18454;DHT22;9356;52.202;20.950;2023-12-29T06:31:55;6.20;99.90
18454;DHT22;9356;52.202;20.950;2023-12-29T06:33:00;6.20;99.90
18454;DHT22;9356;52.202;20.950;2023-12-29T06:34:07;6.20;99.90
18454;DHT22;9356;52.202;20.950;2023-12-29T06:35:13;6.30;99.90
18454;DHT22;9356;52.202;20.950;2023-12-29T06:36:17;6.30;99.90
18454;DHT22;9356;52.202;20.950;2023-12-29T06:37:20;6.30;99.90
18454;DHT22;9356;52.202;20.950;2023-12-29T06:38:24;6.30;99.90
18454;DHT22;9356;52.202;20.950;2023-12-29T06:39:27;6.30;99.90
18454;DHT22;9356;52.202;20.950;2023-12-29T06:40:31;6.30;99.90
18454;DHT22;9356;52.202;20.950;2023-12-29T06:41:37;6.40;99.90
18454;DHT22;9356;52.202;20.950;2023-12-29T06:42:41;6.40;99.90
18454;DHT22;9356;52.202;20.950;2023-12-29T06:43:45;6.40;99.90
18454;DHT22;9356;52.202;20.950;2023-12-29T06:44:53;6.40;99.90
18454;DHT22;9356;52.202;20.950;2023-12-29T06:45:56;6.40;99.90
18454;DHT22;9356;52.202;20.950;2023-12-29T06:47:00;6.40;99.90
18454;DHT22;9356;52.202;20.950;2023-12-29T06:48:06;6.40;99.90
18454;DHT22;9356;52.202;20.950;2023-12-29T06:49:13;6.30;99.90
18454;DHT22;9356;52.202;20.950;2023-12-29T06:50:16;6.30;99.90
18454;DHT22;9356;52.202;20.950;2023-12-29T06:51:20;6.30;99.90
18454;DHT22;9356;52.202;20.950;2023-12-29T06:52:25;6.20;99.90
18454;DHT22;9356;52.202;20.950;2023-12-29T06:53:32;6.20;99.90
18454;DHT22;9356;52.202;20.950;2023-12-29T06:54:36;6.30;99.90
18454;DHT22;9356;52.202;20.950;2023-12-29T06:55:44;6.20;99.90
18454;DHT22;9356;52.202;20.950;2023-12-29T06:56:48;6.20;99.90
18454;DHT22;9356;52.202;20.950;2023-12-29T06:57:54;6.20;99.90
18454;DHT22;9356;52.202;20.950;2023-12-29T06:58:59;6.20;99.90
18454;DHT22;9356;52.202;20.950;2023-12-29T07:00:07;6.30;99.90
18454;DHT22;9356;52.202;20.950;2023-12-29T07:01:10;6.30;99.90
18454;DHT22;9356;52.202;20.950;2023-12-29T07:02:17;6.40;99.90
18454;DHT22;9356;52.202;20.950;2023-12-29T07:03:20;6.40;99.90